Tekirdag, Turkey

12:45 PM EEST on September 18, 2014 (GMT +0300)
Tekirdag | Change Station
CLOSE
Current Station
Personal Weather Station
Location: Tekirdag, Degirmenalti Mah
Elevation: 128 ft
Nearby Weather Stations

Elev 128 ft 40.98 °N, 27.59 °E | Updated 1 second ago

Mostly Cloudy
Mostly Cloudy
69.6 °F
Feels Like 69.6 °F
N
5.4
Wind Variable Wind from NE
Gusts 11.9 mph

Today
High -- | Low -- °F
--% Chance of Precip.
Yesterday
High -- | Low -- °F
Precip. -- in
6:53 AM 7:14 PM
Waning Crescent, 28% visible
Pressure 30.04 in
Visibility 6.2 miles
Clouds Few 1700 ft
Mostly Cloudy 3300 ft
Dew Point 50 °F
Humidity 50%
Rainfall 0.04 in
Snow Depth Not available.
UV 3 out of 12
Pollen Not available.
Air Quality Not available.
Flu Activity Not available.
METAR LTBU 180920Z 35007KT 9999 FEW017 BKN033 18/16 Q1017 RESHRA RMK RWY23 01008KT 340V040

More Conditions Fewer Conditions

Pressure 30.04 in
Visibility 6.2 miles
Clouds Few 1700 ft
Mostly Cloudy 3300 ft
Dew Point 50 °F
Humidity 50%
Rainfall 0.04 in
Snow Depth Not available.
UV 3 out of 12
Pollen Not available.
Air Quality Not available.
Flu Activity Not available.
METAR LTBU 180920Z 35007KT 9999 FEW017 BKN033 18/16 Q1017 RESHRA RMK RWY23 01008KT 340V040

More Conditions Fewer Conditions

10-Day Weather Forecast

Almanac

Astronomy

Sep. 18, 2014 Rise Set
Actual Time 6:53 AM EEST 7:14 PM EEST
Civil Twilight 6:25 AM EEST 7:41 PM EEST
Nautical Twilight 5:53 AM EEST 8:14 PM EEST
Astronomical Twilight 5:19 AM EEST 8:47 PM EEST
Moon 1:26 AM EEST 3:54 PM EEST
Length of Visible Light 13h 16m
Length of Day
12h 21m
Tomorrow will be 2m 43s shorter.
Waning Crescent, 28% of the Moon is Illuminated
Today
Waning Crescent
Sep 24
New
Oct 1
First Quarter
Oct 8
Full
Oct 15
Last Quarter

Yesterday's Extremes

Country Highs Country Lows

Community

WunderPhotos

Upload Photos

1,754,312 photos uploaded!

Nearby

Snow Depth

Not available.

Earthquake Activity

City Distance Mag. Time & Date
No recent earthquake activity has been reported nearby.
Minimum magnitude displayed is 2.5.

Coastal Water Temperatures

Place Temperature
No Stations Reporting

Nearby Weather Stations